MMMY METAR and TAF | Updated Today

MMMY METAR

General Mariano Escobedo International Airport

Observation time: 49 min. ago

MMMY 010640Z 06003KT 10SM SKC 19/13 A2994

Need help? Read our tutorial on how to read METARs or read the parsed version below.

General Mariano Escobedo International Airport (MMMY) METAR

  • Weather conditions on Sat, 01 Oct 2022 06:40:00 +0000 (49 min. ago):
  • Present conditions: Dry
  • Clouds: No significant changes expected
  • Visibility: 16093 meters
  • Wind: 60 degrees at 3 knots
  • Temperature: 19 celsius
  • Dew point: 13 celsius
  • Pressure: 29.94 inHg
  • Remarks: None


Useful to know...

MMMY TAF

General Mariano Escobedo International Airport

TAF MMMY 010422Z 0106/0212 12005KT P6SM SKC TX30/0121Z TN17/0112Z FM011800 12010KT P6SM SKC FM020300 12005KT P6SM SCT020
Observation time: 3:07 hr. ago
Need help? Read our tutorial on how to read TAFs or read the parsed version below.

Parsed version of TAF for General Mariano Escobedo International Airport (MMMY)

  • From 01 October at 06:00 UTC, to day 02 of the month at 12:00 UTC
  • Clouds: No significant changes expected
  • Wind: 120 degrees at 5
  • From day 1 of the month at 18:00 UTC
  • Clouds: No significant changes expected
  • Wind: 120 degrees at 10
  • From day 2 of the month at 03:00 UTC
  • Clouds: Scattered at 610 meters
  • Wind: 120 degrees at 5